Terminal Aerodrome Forecast
Issued by NWS

Home | Current Version | Previous Version | Text Only | Print | Product List | Glossary On
Versions: 1 2 3 4 5 6 7 8 9 10 11 12 13 14 15 16 17
000
FTUS42 KMLB 031120
TAFLEE
TAF
KLEE 031120Z 0312/0412 20004KT P6SM FEW020 SCT090
     FM031500 23010KT P6SM SCT025 SCT050
     FM031700 24009KT P6SM VCTS BKN035CB
      TEMPO 0317/0320 3SM TSRA BKN020CB
     FM032300 23007KT P6SM SCT050 BKN150=

USA.gov is the U.S. government's official web portal to all federal, state and local government web resources and services.